Ogema, Minnesota
Current Conditions -  °F | °C
As of 11:15 AM on Sunday 23 Nov 2014 (Local Time) from K3N8 Reporting Station
Overcast Overcast  
Wind Chill: 29°   Ceiling: 3600
Heat Index: 36°   Visibility: 10mi
Dew Point: 34°   Wind: 9mph
Humidity: 92%   Direction: 210°SSW
Pressure: 29.43"   Gusts: NA
Location:  47.1°N, 95.93°W
Report Text: K3N8 231715Z AUTO 21008KT 10SM OVC036 02/01 A2943 RMK AO2 T00210010
Loading
Personal Weather Stations






























Interactive Weather Map New forecast layout! Learn more

10-Day Weather Forecast

Advertisements
Track Severe Weather on mobile